createdAt,value
2024-03-16T00:00:08.001Z,7.86
2024-03-16T00:03:11.862Z,7.79
2024-03-16T00:06:15.826Z,7.73
2024-03-16T00:09:19.539Z,7.68
2024-03-16T00:12:23.160Z,7.65
2024-03-16T00:15:25.829Z,7.61
2024-03-16T00:18:28.452Z,7.57
2024-03-16T00:21:30.989Z,7.53
2024-03-16T00:24:33.566Z,7.55
2024-03-16T00:27:36.448Z,7.55
2024-03-16T00:30:38.995Z,7.61
2024-03-16T00:33:41.597Z,7.69
2024-03-16T00:36:44.151Z,7.75
2024-03-16T00:39:46.783Z,7.75
2024-03-16T00:42:49.401Z,7.72
2024-03-16T00:45:52.149Z,7.73
2024-03-16T00:48:54.750Z,7.78
2024-03-16T00:51:58.608Z,7.77
2024-03-16T00:55:01.241Z,7.83
2024-03-16T00:58:04.654Z,7.84
2024-03-16T01:01:07.282Z,7.83
2024-03-16T01:04:10.194Z,7.79
2024-03-16T01:07:14.239Z,7.70
2024-03-16T01:10:17.633Z,7.82
2024-03-16T01:13:20.159Z,7.74
2024-03-16T01:16:22.709Z,7.68
2024-03-16T01:19:26.359Z,7.77
2024-03-16T01:22:28.856Z,7.79
2024-03-16T01:25:31.460Z,7.80
2024-03-16T01:28:34.907Z,7.91
2024-03-16T01:31:38.590Z,7.95
2024-03-16T01:34:41.156Z,7.98
2024-03-16T01:37:44.183Z,8.02
2024-03-16T01:40:46.954Z,8.00
2024-03-16T01:43:49.805Z,7.97
2024-03-16T01:46:52.474Z,7.91
2024-03-16T01:49:55.005Z,7.92
2024-03-16T01:52:58.272Z,8.01
2024-03-16T01:56:00.943Z,7.94
2024-03-16T01:59:04.143Z,7.87
2024-03-16T02:02:29.580Z,7.86
2024-03-16T02:05:32.653Z,7.77
2024-03-16T02:08:35.207Z,7.67
2024-03-16T02:11:37.772Z,7.66
2024-03-16T02:14:40.442Z,7.77
2024-03-16T02:17:43.250Z,7.77
2024-03-16T02:20:45.965Z,7.82
2024-03-16T02:23:49.372Z,7.84
2024-03-16T02:26:53.211Z,7.83
2024-03-16T02:29:55.769Z,7.91
2024-03-16T02:32:58.381Z,7.95
2024-03-16T02:36:00.965Z,8.10
2024-03-16T02:39:03.648Z,8.25
2024-03-16T02:42:06.371Z,8.21
2024-03-16T02:45:09.088Z,8.14
2024-03-16T02:48:12.577Z,8.14
2024-03-16T02:51:15.234Z,8.16
2024-03-16T02:54:18.045Z,8.22
2024-03-16T02:57:20.602Z,8.25
2024-03-16T03:00:23.633Z,8.25
2024-03-16T03:03:26.146Z,8.30
2024-03-16T03:06:28.781Z,8.36
2024-03-16T03:09:33.182Z,8.35
2024-03-16T03:12:35.759Z,8.37
2024-03-16T03:15:38.807Z,8.37
2024-03-16T03:18:41.455Z,8.51
2024-03-16T03:21:44.057Z,8.46
2024-03-16T03:24:49.398Z,8.45
2024-03-16T03:27:52.177Z,8.42
2024-03-16T03:30:54.928Z,8.39
2024-03-16T03:33:57.606Z,8.42
2024-03-16T03:37:00.138Z,8.34
2024-03-16T03:40:02.844Z,8.41
2024-03-16T03:43:06.849Z,8.45
2024-03-16T03:46:14.757Z,8.47
2024-03-16T03:49:27.781Z,8.49
2024-03-16T03:52:30.318Z,8.56
2024-03-16T03:55:33.423Z,8.49
2024-03-16T03:58:35.941Z,8.53
2024-03-16T04:01:38.706Z,8.48
2024-03-16T04:04:43.189Z,8.49
2024-03-16T04:07:45.725Z,8.46
2024-03-16T04:10:48.590Z,8.50
2024-03-16T04:13:51.200Z,8.60
2024-03-16T04:16:53.739Z,8.66
2024-03-16T04:19:56.394Z,8.61
2024-03-16T04:22:59.052Z,8.40
2024-03-16T04:26:01.581Z,8.44
2024-03-16T04:29:04.052Z,8.31
2024-03-16T04:32:06.681Z,8.26
2024-03-16T04:35:09.847Z,8.18
2024-03-16T04:38:14.349Z,8.24
2024-03-16T04:41:17.222Z,8.19
2024-03-16T04:44:19.884Z,8.18
2024-03-16T04:47:22.424Z,8.12
2024-03-16T04:50:25.516Z,8.10
2024-03-16T04:53:28.046Z,8.15
2024-03-16T04:56:30.657Z,8.09
2024-03-16T04:59:33.171Z,7.96
2024-03-16T05:02:35.643Z,7.94
2024-03-16T05:05:38.162Z,7.85
2024-03-16T05:08:41.921Z,7.93
2024-03-16T05:11:45.640Z,7.94
2024-03-16T05:14:48.157Z,7.88
2024-03-16T05:17:51.080Z,7.91
2024-03-16T05:20:53.645Z,7.86
2024-03-16T05:23:56.567Z,7.91
2024-03-16T05:26:59.136Z,7.92
2024-03-16T05:30:01.602Z,8.00
2024-03-16T05:33:05.572Z,8.12
2024-03-16T05:36:10.769Z,8.18
2024-03-16T05:39:16.099Z,8.08
2024-03-16T05:42:18.905Z,8.12
2024-03-16T05:45:22.202Z,8.11
2024-03-16T05:48:24.827Z,8.23
2024-03-16T05:51:28.521Z,8.31
2024-03-16T05:54:35.380Z,8.39
2024-03-16T05:57:38.700Z,8.48
2024-03-16T06:00:42.123Z,8.51
2024-03-16T06:03:44.633Z,8.53
2024-03-16T06:06:47.729Z,8.67
2024-03-16T06:09:50.460Z,8.55
2024-03-16T06:12:53.292Z,8.50
2024-03-16T06:15:55.883Z,8.58
2024-03-16T06:19:00.248Z,8.66
2024-03-16T06:22:04.275Z,8.81
2024-03-16T06:25:07.468Z,8.88
2024-03-16T06:28:10.738Z,8.95
2024-03-16T06:31:13.380Z,9.12
2024-03-16T06:34:16.005Z,9.16
2024-03-16T06:37:18.844Z,9.29
2024-03-16T06:40:21.832Z,9.40
2024-03-16T06:43:25.349Z,9.55
2024-03-16T06:46:27.978Z,9.80
2024-03-16T06:49:30.801Z,9.88
2024-03-16T06:52:33.349Z,9.84
2024-03-16T06:55:36.098Z,9.92
2024-03-16T06:58:38.639Z,9.98
2024-03-16T07:01:41.156Z,10.04
2024-03-16T07:04:44.038Z,10.13
2024-03-16T07:07:46.502Z,10.22
2024-03-16T07:10:49.059Z,10.17
2024-03-16T07:13:52.127Z,10.08
2024-03-16T07:16:56.134Z,10.07
2024-03-16T07:19:58.724Z,9.97
2024-03-16T07:23:01.241Z,10.02
2024-03-16T07:26:04.082Z,10.05
2024-03-16T07:29:06.648Z,10.13
2024-03-16T07:32:09.257Z,10.14
2024-03-16T07:35:12.502Z,10.27
2024-03-16T07:38:15.224Z,10.37
2024-03-16T07:41:17.800Z,10.43
2024-03-16T07:44:20.461Z,10.57
2024-03-16T07:47:23.030Z,10.69
2024-03-16T07:50:25.497Z,10.51
2024-03-16T07:53:28.687Z,10.53
2024-03-16T07:56:32.426Z,10.57
2024-03-16T07:59:34.933Z,10.48
2024-03-16T08:02:37.438Z,10.50
2024-03-16T08:05:40.567Z,10.33
2024-03-16T08:08:45.313Z,10.44
2024-03-16T08:11:48.060Z,10.59
2024-03-16T08:14:50.571Z,10.74
2024-03-16T08:17:55.502Z,10.96
2024-03-16T08:21:01.402Z,11.03
2024-03-16T08:24:04.173Z,11.27
2024-03-16T08:27:06.798Z,11.33
2024-03-16T08:30:10.190Z,11.59
2024-03-16T08:33:12.699Z,11.65
2024-03-16T08:36:16.287Z,11.91
2024-03-16T08:39:19.698Z,11.84
2024-03-16T08:42:22.289Z,12.00
2024-03-16T08:45:24.903Z,12.02
2024-03-16T08:48:27.450Z,12.05
2024-03-16T08:51:30.159Z,12.34
2024-03-16T08:54:34.194Z,12.58
2024-03-16T08:57:36.857Z,12.77
2024-03-16T09:00:39.612Z,12.78
2024-03-16T09:03:42.260Z,13.11
2024-03-16T09:06:46.004Z,12.65
2024-03-16T09:09:48.703Z,12.76
2024-03-16T09:12:51.210Z,12.92
2024-03-16T09:15:53.856Z,13.26
2024-03-16T09:18:56.536Z,13.35
2024-03-16T09:21:59.581Z,13.09
2024-03-16T09:25:06.776Z,13.17
2024-03-16T09:28:09.750Z,13.08
2024-03-16T09:31:12.279Z,12.88
2024-03-16T09:34:15.575Z,12.84
2024-03-16T09:37:18.304Z,12.81
2024-03-16T09:40:21.188Z,12.96
